Time,TemperatureF,DewpointF,PressureIn,WindDirection,WindDirectionDegrees,WindSpeedMPH,WindSpeedGustMPH,Humidity,HourlyPrecipIn,Conditions,Clouds,dailyrainin,SoftwareType,DateUTC
2013-05-08 00:00:00,49.3,42.0,29.73,NW,315,0.0,0.0,76,0.00,,,0.00,LWC V2.10 B1813,2013-05-08 06:00:00,
2013-05-08 00:05:00,49.6,42.0,29.73,WNW,292,0.0,0.0,75,0.00,,,0.00,LWC V2.10 B1813,2013-05-08 06:05:00,
2013-05-08 00:10:00,49.8,41.8,29.73,West,270,0.0,0.0,74,0.00,,,0.00,LWC V2.10 B1813,2013-05-08 06:10:00,
2013-05-08 00:15:00,49.8,41.8,29.73,WNW,292,0.0,0.0,74,0.00,,,0.00,LWC V2.10 B1813,2013-05-08 06:15:00,
2013-05-08 00:20:00,49.8,41.8,29.72,WNW,292,0.0,0.0,74,0.00,,,0.00,LWC V2.10 B1813,2013-05-08 06:20:00,
2013-05-08 00:25:00,49.8,41.8,29.72,WNW,292,0.0,0.0,74,0.00,,,0.00,LWC V2.10 B1813,2013-05-08 06:25:00,
2013-05-08 00:30:00,49.8,41.8,29.72,West,270,0.0,0.0,74,0.00,,,0.00,LWC V2.10 B1813,2013-05-08 06:30:00,
2013-05-08 00:35:00,49.8,41.5,29.72,West,270,0.0,0.0,73,0.00,,,0.00,LWC V2.10 B1813,2013-05-08 06:35:00,
2013-05-08 00:40:00,50.0,41.7,29.72,West,270,0.0,0.0,73,0.00,,,0.00,LWC V2.10 B1813,2013-05-08 06:40:00,
2013-05-08 00:45:00,49.8,41.5,29.71,West,270,0.0,0.0,73,0.00,,,0.00,LWC V2.10 B1813,2013-05-08 06:45:00,
2013-05-08 00:50:00,49.6,41.3,29.71,West,270,0.0,0.0,73,0.00,,,0.00,LWC V2.10 B1813,2013-05-08 06:50:00,
2013-05-08 00:55:00,49.8,41.1,29.71,West,270,0.0,0.0,72,0.00,,,0.00,LWC V2.10 B1813,2013-05-08 06:55:00,
2013-05-08 01:02:00,49.6,41.0,29.71,WSW,247,0.0,0.0,72,0.00,,,0.00,LWC V2.10 B1813,2013-05-08 07:02:00,
2013-05-08 01:07:00,49.6,40.6,29.71,SW,225,0.0,0.0,71,0.00,,,0.00,LWC V2.10 B1813,2013-05-08 07:07:00,
2013-05-08 01:12:00,49.6,41.0,29.71,SW,225,0.0,0.0,72,0.00,,,0.00,LWC V2.10 B1813,2013-05-08 07:12:00,
2013-05-08 01:17:00,49.1,40.4,29.71,SW,225,0.0,0.0,72,0.00,,,0.00,LWC V2.10 B1813,2013-05-08 07:17:00,
2013-05-08 01:22:00,48.9,40.6,29.71,SW,225,0.0,0.0,73,0.00,,,0.00,LWC V2.10 B1813,2013-05-08 07:22:00,
2013-05-08 01:27:00,48.9,40.6,29.71,SW,225,0.0,0.0,73,0.00,,,0.00,LWC V2.10 B1813,2013-05-08 07:27:00,
2013-05-08 01:32:00,48.7,40.4,29.71,SW,225,0.0,0.0,73,0.00,,,0.00,LWC V2.10 B1813,2013-05-08 07:32:00,
2013-05-08 01:37:00,48.0,40.0,29.71,SW,225,0.0,0.0,74,0.00,,,0.00,LWC V2.10 B1813,2013-05-08 07:37:00,
2013-05-08 01:42:00,47.5,39.9,29.71,SW,225,0.0,0.0,75,0.00,,,0.00,LWC V2.10 B1813,2013-05-08 07:42:00,
2013-05-08 01:47:00,47.1,39.6,29.71,SW,225,0.0,0.0,75,0.00,,,0.00,LWC V2.10 B1813,2013-05-08 07:47:00,
2013-05-08 01:52:00,46.4,39.3,29.71,SW,225,0.0,0.0,76,0.00,,,0.00,LWC V2.10 B1813,2013-05-08 07:52:00,
2013-05-08 01:57:00,46.2,39.1,29.71,SW,225,0.0,0.0,76,0.00,,,0.00,LWC V2.10 B1813,2013-05-08 07:57:00,
2013-05-08 02:02:00,45.7,38.9,29.71,SW,225,0.0,0.0,77,0.00,,,0.00,LWC V2.10 B1813,2013-05-08 08:02:00,
2013-05-08 02:07:00,45.3,38.5,29.71,SW,225,0.0,0.0,77,0.00,,,0.00,LWC V2.10 B1813,2013-05-08 08:07:00,
2013-05-08 02:12:00,45.1,38.4,29.70,WSW,247,0.0,0.0,77,0.00,,,0.00,LWC V2.10 B1813,2013-05-08 08:12:00,
2013-05-08 02:17:00,45.1,38.7,29.70,WSW,247,0.0,0.0,78,0.00,,,0.00,LWC V2.10 B1813,2013-05-08 08:17:00,
2013-05-08 02:22:00,45.0,38.5,29.71,WSW,247,0.0,0.0,78,0.00,,,0.00,LWC V2.10 B1813,2013-05-08 08:22:00,
2013-05-08 02:27:00,45.1,39.0,29.71,WSW,247,0.0,0.0,79,0.00,,,0.00,LWC V2.10 B1813,2013-05-08 08:27:00,
2013-05-08 02:32:00,45.1,39.0,29.71,WSW,247,0.0,0.0,79,0.00,,,0.00,LWC V2.10 B1813,2013-05-08 08:32:00,
2013-05-08 02:37:00,45.0,38.9,29.71,WSW,247,0.0,0.0,79,0.00,,,0.00,LWC V2.10 B1813,2013-05-08 08:37:00,
2013-05-08 02:42:00,44.4,38.3,29.71,WSW,247,0.0,0.0,79,0.00,,,0.00,LWC V2.10 B1813,2013-05-08 08:42:00,
2013-05-08 02:47:00,44.2,38.1,29.71,WSW,247,0.0,0.0,79,0.00,,,0.00,LWC V2.10 B1813,2013-05-08 08:47:00,
2013-05-08 02:52:00,43.7,37.9,29.71,WSW,247,0.0,0.0,80,0.00,,,0.00,LWC V2.10 B1813,2013-05-08 08:52:00,
2013-05-08 02:57:00,43.5,37.8,29.71,WSW,247,0.0,0.0,80,0.00,,,0.00,LWC V2.10 B1813,2013-05-08 08:57:00,
2013-05-08 03:02:00,43.3,37.6,29.71,WSW,247,0.0,0.0,80,0.00,,,0.00,LWC V2.10 B1813,2013-05-08 09:02:00,
2013-05-08 03:07:00,43.2,37.4,29.71,WSW,247,0.0,0.0,80,0.00,,,0.00,LWC V2.10 B1813,2013-05-08 09:07:00,
2013-05-08 03:12:00,43.2,37.4,29.71,WSW,247,0.0,0.0,80,0.00,,,0.00,LWC V2.10 B1813,2013-05-08 09:12:00,
2013-05-08 03:17:00,43.0,37.2,29.71,West,270,0.0,0.0,80,0.00,,,0.00,LWC V2.10 B1813,2013-05-08 09:17:00,
2013-05-08 03:22:00,42.6,36.9,29.71,West,270,0.0,0.0,80,0.00,,,0.00,LWC V2.10 B1813,2013-05-08 09:22:00,
2013-05-08 03:27:00,42.6,36.9,29.71,West,270,0.0,0.0,80,0.00,,,0.00,LWC V2.10 B1813,2013-05-08 09:27:00,
2013-05-08 03:32:00,42.6,36.9,29.71,WNW,292,0.0,0.0,80,0.00,,,0.00,LWC V2.10 B1813,2013-05-08 09:32:00,
2013-05-08 03:37:00,42.6,36.9,29.70,West,270,0.0,0.0,80,0.00,,,0.00,LWC V2.10 B1813,2013-05-08 09:37:00,
2013-05-08 03:42:00,42.6,36.9,29.70,SW,225,0.0,0.0,80,0.00,,,0.00,LWC V2.10 B1813,2013-05-08 09:42:00,
2013-05-08 03:47:00,42.6,36.9,29.70,SW,225,0.0,0.0,80,0.00,,,0.00,LWC V2.10 B1813,2013-05-08 09:47:00,
2013-05-08 03:52:00,42.4,36.7,29.70,WSW,247,0.0,0.0,80,0.00,,,0.00,LWC V2.10 B1813,2013-05-08 09:52:00,
2013-05-08 03:57:00,42.6,36.5,29.71,WSW,247,0.0,0.0,79,0.00,,,0.00,LWC V2.10 B1813,2013-05-08 09:57:00,
2013-05-08 04:02:00,42.6,36.5,29.70,West,270,0.0,0.0,79,0.00,,,0.00,LWC V2.10 B1813,2013-05-08 10:02:00,
2013-05-08 04:07:00,43.0,36.6,29.71,NW,315,0.0,0.0,78,0.00,,,0.00,LWC V2.10 B1813,2013-05-08 10:07:00,
2013-05-08 04:12:00,43.0,36.6,29.71,West,270,0.0,0.0,78,0.00,,,0.00,LWC V2.10 B1813,2013-05-08 10:12:00,
2013-05-08 04:17:00,43.0,36.6,29.71,WSW,247,0.0,0.0,78,0.00,,,0.00,LWC V2.10 B1813,2013-05-08 10:17:00,
2013-05-08 04:22:00,43.0,36.6,29.71,WSW,247,0.0,0.0,78,0.00,,,0.00,LWC V2.10 B1813,2013-05-08 10:22:00,
2013-05-08 04:27:00,43.0,36.6,29.71,WSW,247,0.0,0.0,78,0.00,,,0.00,LWC V2.10 B1813,2013-05-08 10:27:00,
2013-05-08 04:32:00,43.0,36.6,29.70,West,270,0.0,0.0,78,0.00,,,0.00,LWC V2.10 B1813,2013-05-08 10:32:00,
2013-05-08 04:37:00,43.5,37.1,29.70,WSW,247,0.0,0.0,78,0.00,,,0.00,LWC V2.10 B1813,2013-05-08 10:37:00,
2013-05-08 04:42:00,43.7,36.9,29.70,West,270,0.0,0.0,77,0.00,,,0.00,LWC V2.10 B1813,2013-05-08 10:42:00,
2013-05-08 04:47:00,44.2,37.1,29.70,West,270,0.0,0.0,76,0.00,,,0.00,LWC V2.10 B1813,2013-05-08 10:47:00,
2013-05-08 04:52:00,44.4,37.0,29.70,WSW,247,0.0,0.0,75,0.00,,,0.00,LWC V2.10 B1813,2013-05-08 10:52:00,
2013-05-08 04:57:00,44.8,37.0,29.70,NW,315,0.0,0.0,74,0.00,,,0.00,LWC V2.10 B1813,2013-05-08 10:57:00,
2013-05-08 05:02:00,45.0,36.8,29.70,West,270,0.0,0.0,73,0.00,,,0.00,LWC V2.10 B1813,2013-05-08 11:02:00,
2013-05-08 05:07:00,44.8,36.6,29.70,WSW,247,0.0,0.0,73,0.00,,,0.00,LWC V2.10 B1813,2013-05-08 11:07:00,
2013-05-08 05:12:00,44.6,36.4,29.71,WSW,247,0.0,0.0,73,0.00,,,0.00,LWC V2.10 B1813,2013-05-08 11:12:00,
2013-05-08 05:17:00,44.8,36.3,29.71,WSW,247,0.0,0.0,72,0.00,,,0.00,LWC V2.10 B1813,2013-05-08 11:17:00,
2013-05-08 05:22:00,44.6,36.1,29.71,WSW,247,0.0,0.0,72,0.00,,,0.00,LWC V2.10 B1813,2013-05-08 11:22:00,
2013-05-08 05:27:00,44.2,36.1,29.71,WSW,247,0.0,0.0,73,0.00,,,0.00,LWC V2.10 B1813,2013-05-08 11:27:00,
2013-05-08 05:32:00,43.9,35.4,29.70,WSW,247,0.0,0.0,72,0.00,,,0.00,LWC V2.10 B1813,2013-05-08 11:32:00,
2013-05-08 05:38:00,44.1,35.6,29.70,West,270,0.0,0.0,72,0.00,,,0.00,LWC V2.10 B1813,2013-05-08 11:38:00,
2013-05-08 05:43:00,43.9,35.4,29.71,West,270,0.0,0.0,72,0.00,,,0.00,LWC V2.10 B1813,2013-05-08 11:43:00,
2013-05-08 05:48:00,43.9,35.4,29.70,West,270,0.0,0.0,72,0.00,,,0.00,LWC V2.10 B1813,2013-05-08 11:48:00,
2013-05-08 05:53:00,43.7,35.3,29.70,West,270,0.0,0.0,72,0.00,,,0.00,LWC V2.10 B1813,2013-05-08 11:53:00,
2013-05-08 05:58:00,44.2,35.8,29.70,SW,225,0.0,0.0,72,0.00,,,0.00,LWC V2.10 B1813,2013-05-08 11:58:00,
2013-05-08 06:03:00,44.4,35.6,29.70,SW,225,0.0,0.0,71,0.00,,,0.00,LWC V2.10 B1813,2013-05-08 12:03:00,
2013-05-08 06:08:00,44.2,35.4,29.71,SW,225,0.0,0.0,71,0.00,,,0.00,LWC V2.10 B1813,2013-05-08 12:08:00,
2013-05-08 06:13:00,43.9,35.4,29.71,SW,225,0.0,0.0,72,0.00,,,0.00,LWC V2.10 B1813,2013-05-08 12:13:00,
2013-05-08 06:18:00,43.9,35.4,29.71,WSW,247,0.0,0.0,72,0.00,,,0.00,LWC V2.10 B1813,2013-05-08 12:18:00,
2013-05-08 06:23:00,44.4,35.9,29.71,WSW,247,0.0,0.0,72,0.00,,,0.00,LWC V2.10 B1813,2013-05-08 12:23:00,
2013-05-08 06:28:00,44.8,36.1,29.71,WSW,247,0.0,0.0,72,0.00,,,0.00,LWC V2.10 B1813,2013-05-08 12:28:00,
2013-05-08 06:33:00,45.1,36.6,29.71,WSW,247,0.0,0.0,72,0.00,,,0.00,LWC V2.10 B1813,2013-05-08 12:33:00,
2013-05-08 06:38:00,45.1,36.6,29.71,WSW,247,0.0,0.0,72,0.00,,,0.00,LWC V2.10 B1813,2013-05-08 12:38:00,
2013-05-08 06:43:00,45.1,37.0,29.71,WSW,247,0.0,0.0,73,0.00,,,0.00,LWC V2.10 B1813,2013-05-08 12:43:00,
2013-05-08 06:48:00,45.3,37.2,29.71,WSW,247,0.0,0.0,73,0.00,,,0.00,LWC V2.10 B1813,2013-05-08 12:48:00,
2013-05-08 06:53:00,45.7,37.2,29.71,WSW,247,0.0,0.0,72,0.00,,,0.00,LWC V2.10 B1813,2013-05-08 12:53:00,
2013-05-08 06:58:00,45.9,37.2,29.71,WSW,247,0.0,0.0,72,0.00,,,0.00,LWC V2.10 B1813,2013-05-08 12:58:00,
2013-05-08 07:03:00,46.2,37.7,29.72,WSW,247,0.0,0.0,72,0.00,,,0.00,LWC V2.10 B1813,2013-05-08 13:03:00,
2013-05-08 07:08:00,46.2,37.7,29.72,WSW,247,0.0,0.0,72,0.00,,,0.00,LWC V2.10 B1813,2013-05-08 13:08:00,
2013-05-08 07:13:00,46.9,38.4,29.73,WSW,247,0.0,0.0,72,0.00,,,0.00,LWC V2.10 B1813,2013-05-08 13:13:00,
2013-05-08 07:18:00,47.3,38.7,29.73,WSW,247,0.0,0.0,72,0.00,,,0.00,LWC V2.10 B1813,2013-05-08 13:18:00,
2013-05-08 07:23:00,47.7,38.7,29.73,WSW,247,0.0,0.0,71,0.00,,,0.00,LWC V2.10 B1813,2013-05-08 13:23:00,
2013-05-08 07:28:00,48.0,38.7,29.73,WSW,247,0.0,0.0,70,0.00,,,0.00,LWC V2.10 B1813,2013-05-08 13:28:00,
2013-05-08 07:33:00,48.4,39.0,29.73,WSW,247,0.0,0.0,70,0.00,,,0.00,LWC V2.10 B1813,2013-05-08 13:33:00,
2013-05-08 07:38:00,48.7,39.0,29.73,WSW,247,0.0,0.0,69,0.00,,,0.00,LWC V2.10 B1813,2013-05-08 13:38:00,
2013-05-08 07:43:00,49.3,39.1,29.73,WSW,247,0.0,0.0,68,0.00,,,0.00,LWC V2.10 B1813,2013-05-08 13:43:00,
2013-05-08 07:48:00,49.8,39.7,29.73,WSW,247,0.0,0.0,68,0.00,,,0.00,LWC V2.10 B1813,2013-05-08 13:48:00,
2013-05-08 07:53:00,50.4,40.2,29.72,WSW,247,0.0,0.0,68,0.00,,,0.00,LWC V2.10 B1813,2013-05-08 13:53:00,
2013-05-08 07:58:00,51.1,40.1,29.73,WSW,247,0.0,0.0,66,0.00,,,0.00,LWC V2.10 B1813,2013-05-08 13:58:00,
2013-05-08 08:03:00,51.4,40.8,29.73,WSW,247,0.0,0.0,67,0.00,,,0.00,LWC V2.10 B1813,2013-05-08 14:03:00,
2013-05-08 08:08:00,51.6,40.6,29.73,WSW,247,0.0,0.0,66,0.00,,,0.00,LWC V2.10 B1813,2013-05-08 14:08:00,
2013-05-08 08:13:00,52.2,41.1,29.74,WSW,247,0.0,0.0,66,0.00,,,0.00,LWC V2.10 B1813,2013-05-08 14:13:00,
2013-05-08 08:18:00,52.3,40.9,29.73,WSW,247,0.0,0.0,65,0.00,,,0.00,LWC V2.10 B1813,2013-05-08 14:18:00,
2013-05-08 08:23:00,52.3,40.9,29.73,WSW,247,0.0,0.0,65,0.00,,,0.00,LWC V2.10 B1813,2013-05-08 14:23:00,
2013-05-08 08:28:00,52.3,40.5,29.73,WSW,247,0.0,0.0,64,0.00,,,0.00,LWC V2.10 B1813,2013-05-08 14:28:00,
2013-05-08 08:33:00,52.3,40.5,29.73,WSW,247,0.0,0.0,64,0.00,,,0.00,LWC V2.10 B1813,2013-05-08 14:33:00,
2013-05-08 08:38:00,52.3,40.9,29.73,WSW,247,0.0,0.0,65,0.00,,,0.00,LWC V2.10 B1813,2013-05-08 14:38:00,
2013-05-08 08:43:00,52.5,41.1,29.73,WSW,247,0.0,0.0,65,0.00,,,0.00,LWC V2.10 B1813,2013-05-08 14:43:00,
2013-05-08 08:48:00,52.7,41.6,29.73,West,270,0.0,0.0,66,0.00,,,0.00,LWC V2.10 B1813,2013-05-08 14:48:00,
2013-05-08 08:53:00,53.2,42.1,29.73,West,270,0.0,0.0,66,0.00,,,0.00,LWC V2.10 B1813,2013-05-08 14:53:00,
2013-05-08 08:58:00,53.8,43.0,29.73,West,270,0.0,0.0,67,0.00,,,0.00,LWC V2.10 B1813,2013-05-08 14:58:00,
2013-05-08 09:03:00,54.0,43.2,29.73,South,180,0.0,0.0,67,0.00,,,0.00,LWC V2.10 B1813,2013-05-08 15:03:00,
2013-05-08 09:08:00,53.4,41.9,29.74,South,180,0.0,0.0,65,0.00,,,0.00,LWC V2.10 B1813,2013-05-08 15:08:00,
2013-05-08 09:13:00,53.4,41.9,29.74,South,180,0.0,0.0,65,0.00,,,0.00,LWC V2.10 B1813,2013-05-08 15:13:00,
2013-05-08 09:18:00,53.4,41.9,29.74,South,180,0.0,0.0,65,0.00,,,0.00,LWC V2.10 B1813,2013-05-08 15:18:00,
2013-05-08 09:23:00,53.4,42.3,29.74,SSE,157,0.0,0.0,66,0.00,,,0.00,LWC V2.10 B1813,2013-05-08 15:23:00,
2013-05-08 09:28:00,53.4,42.3,29.74,SE,135,0.0,0.0,66,0.00,,,0.00,LWC V2.10 B1813,2013-05-08 15:28:00,
2013-05-08 09:33:00,53.8,43.0,29.74,SE,135,0.0,0.0,67,0.00,,,0.00,LWC V2.10 B1813,2013-05-08 15:33:00,
2013-05-08 09:38:00,53.8,42.6,29.74,SE,135,0.0,0.0,66,0.00,,,0.00,LWC V2.10 B1813,2013-05-08 15:38:00,
2013-05-08 09:43:00,54.1,43.4,29.74,SE,135,0.0,0.0,67,0.00,,,0.00,LWC V2.10 B1813,2013-05-08 15:43:00,
2013-05-08 09:48:00,54.3,43.6,29.75,SE,135,0.0,0.0,67,0.00,,,0.00,LWC V2.10 B1813,2013-05-08 15:48:00,
2013-05-08 09:53:00,54.7,44.3,29.74,SE,135,0.0,0.0,68,0.00,,,0.00,LWC V2.10 B1813,2013-05-08 15:53:00,
2013-05-08 09:58:00,54.5,43.7,29.74,SE,135,0.0,0.0,67,0.00,,,0.00,LWC V2.10 B1813,2013-05-08 15:58:00,
2013-05-08 10:03:00,54.3,43.6,29.74,SSE,157,0.0,0.0,67,0.00,,,0.00,LWC V2.10 B1813,2013-05-08 16:03:00,
2013-05-08 10:08:00,54.1,43.0,29.75,ESE,112,0.0,0.0,66,0.00,,,0.00,LWC V2.10 B1813,2013-05-08 16:08:00,
2013-05-08 10:13:00,54.3,42.8,29.75,ESE,112,0.0,0.0,65,0.00,,,0.00,LWC V2.10 B1813,2013-05-08 16:13:00,
2013-05-08 10:18:00,54.3,42.8,29.75,ENE,67,0.0,0.0,65,0.00,,,0.00,LWC V2.10 B1813,2013-05-08 16:18:00,
2013-05-08 10:23:00,54.3,42.8,29.75,ESE,112,0.0,0.0,65,0.00,,,0.00,LWC V2.10 B1813,2013-05-08 16:23:00,
2013-05-08 10:28:00,54.1,42.6,29.76,SSE,157,0.0,0.0,65,0.00,,,0.00,LWC V2.10 B1813,2013-05-08 16:28:00,
2013-05-08 10:33:00,53.8,41.8,29.75,SE,135,0.0,0.0,64,0.00,,,0.00,LWC V2.10 B1813,2013-05-08 16:33:00,
2013-05-08 10:42:00,54.0,41.8,29.75,South,180,0.0,0.0,64,0.00,,,0.00,LWC V2.10 B1813,2013-05-08 16:42:00,
2013-05-08 10:49:00,54.5,42.5,29.76,SSW,202,0.0,0.0,64,0.00,,,0.00,LWC V2.10 B1813,2013-05-08 16:49:00,
2013-05-08 10:54:00,55.9,43.1,29.76,SW,225,0.0,0.0,62,0.00,,,0.00,LWC V2.10 B1813,2013-05-08 16:54:00,
2013-05-08 10:59:00,57.0,44.1,29.75,SSW,202,0.0,0.0,62,0.00,,,0.00,LWC V2.10 B1813,2013-05-08 16:59:00,
2013-05-08 11:04:00,57.0,43.7,29.75,WSW,247,0.0,0.0,61,0.00,,,0.00,LWC V2.10 B1813,2013-05-08 17:04:00,
2013-05-08 11:09:00,57.4,43.7,29.75,South,180,0.0,0.0,60,0.00,,,0.00,LWC V2.10 B1813,2013-05-08 17:09:00,
2013-05-08 11:14:00,57.6,43.8,29.75,South,180,0.0,0.0,60,0.00,,,0.00,LWC V2.10 B1813,2013-05-08 17:14:00,
2013-05-08 11:19:00,57.7,44.0,29.75,SSW,202,0.0,0.0,59,0.00,,,0.00,LWC V2.10 B1813,2013-05-08 17:19:00,
2013-05-08 11:24:00,57.6,43.4,29.75,SSW,202,0.0,0.0,59,0.00,,,0.00,LWC V2.10 B1813,2013-05-08 17:24:00,
2013-05-08 11:29:00,57.4,43.2,29.75,SSW,202,0.0,0.0,59,0.00,,,0.00,LWC V2.10 B1813,2013-05-08 17:29:00,
2013-05-08 11:34:00,57.6,42.9,29.75,SSW,202,0.0,0.0,58,0.00,,,0.00,LWC V2.10 B1813,2013-05-08 17:34:00,
2013-05-08 11:39:00,57.4,42.7,29.75,SSW,202,0.0,0.0,58,0.00,,,0.00,LWC V2.10 B1813,2013-05-08 17:39:00,
2013-05-08 11:44:00,57.4,42.3,29.74,West,270,0.0,0.0,57,0.00,,,0.00,LWC V2.10 B1813,2013-05-08 17:44:00,
2013-05-08 11:49:00,57.7,42.1,29.75,West,270,0.0,0.0,56,0.00,,,0.00,LWC V2.10 B1813,2013-05-08 17:49:00,
2013-05-08 11:54:00,57.9,42.3,29.75,West,270,0.0,0.0,56,0.00,,,0.00,LWC V2.10 B1813,2013-05-08 17:54:00,
2013-05-08 11:59:00,57.9,42.8,29.75,SSW,202,0.0,0.0,57,0.00,,,0.00,LWC V2.10 B1813,2013-05-08 17:59:00,
2013-05-08 12:04:00,58.3,42.8,29.74,SSW,202,0.0,0.0,56,0.00,,,0.00,LWC V2.10 B1813,2013-05-08 18:04:00,
2013-05-08 12:09:00,58.8,42.6,29.74,WNW,292,0.0,0.0,55,0.00,,,0.00,LWC V2.10 B1813,2013-05-08 18:09:00,
2013-05-08 12:14:00,59.7,43.5,29.74,SW,225,0.0,0.0,55,0.00,,,0.00,LWC V2.10 B1813,2013-05-08 18:14:00,
2013-05-08 12:19:00,60.6,43.7,29.73,West,270,0.0,0.0,54,0.00,,,0.00,LWC V2.10 B1813,2013-05-08 18:19:00,
2013-05-08 12:24:00,60.4,43.7,29.73,WSW,247,0.0,0.0,54,0.00,,,0.00,LWC V2.10 B1813,2013-05-08 18:24:00,
2013-05-08 12:29:00,60.4,44.2,29.73,SSW,202,0.0,0.0,55,0.00,,,0.00,LWC V2.10 B1813,2013-05-08 18:29:00,
2013-05-08 12:34:00,60.6,43.5,29.73,SW,225,0.0,0.0,53,0.00,,,0.00,LWC V2.10 B1813,2013-05-08 18:34:00,
2013-05-08 12:39:00,61.5,44.2,29.73,West,270,0.0,0.0,53,0.00,,,0.00,LWC V2.10 B1813,2013-05-08 18:39:00,
2013-05-08 12:44:00,62.8,44.8,29.73,SW,225,0.0,0.0,52,0.00,,,0.00,LWC V2.10 B1813,2013-05-08 18:44:00,
2013-05-08 12:49:00,64.9,45.6,29.73,WSW,247,0.0,0.0,51,0.00,,,0.00,LWC V2.10 B1813,2013-05-08 18:49:00,
2013-05-08 12:54:00,66.0,45.8,29.73,SSW,202,0.0,0.0,48,0.00,,,0.00,LWC V2.10 B1813,2013-05-08 18:54:00,
2013-05-08 12:59:00,66.7,45.8,29.73,SW,225,0.0,0.0,47,0.00,,,0.00,LWC V2.10 B1813,2013-05-08 18:59:00,
2013-05-08 13:04:00,66.7,45.0,29.73,West,270,0.0,0.0,45,0.00,,,0.00,LWC V2.10 B1813,2013-05-08 19:04:00,
2013-05-08 13:09:00,66.9,43.6,29.73,North,0,0.0,0.0,43,0.00,,,0.00,LWC V2.10 B1813,2013-05-08 19:09:00,
2013-05-08 13:14:00,66.7,44.0,29.72,WSW,247,0.0,0.0,44,0.00,,,0.00,LWC V2.10 B1813,2013-05-08 19:14:00,
2013-05-08 13:19:00,66.2,44.2,29.73,SE,135,0.0,0.0,45,0.00,,,0.00,LWC V2.10 B1813,2013-05-08 19:19:00,
2013-05-08 13:24:00,65.3,43.9,29.72,SE,135,0.0,0.0,46,0.00,,,0.00,LWC V2.10 B1813,2013-05-08 19:24:00,
2013-05-08 13:29:00,64.9,43.5,29.72,South,180,0.0,0.0,46,0.00,,,0.00,LWC V2.10 B1813,2013-05-08 19:29:00,
2013-05-08 13:34:00,64.9,42.9,29.72,South,180,0.0,0.0,45,0.00,,,0.00,LWC V2.10 B1813,2013-05-08 19:34:00,
2013-05-08 13:39:00,64.9,43.5,29.72,South,180,0.0,0.0,46,0.00,,,0.00,LWC V2.10 B1813,2013-05-08 19:39:00,
2013-05-08 13:44:00,64.9,43.5,29.72,South,180,0.0,0.0,46,0.00,,,0.00,LWC V2.10 B1813,2013-05-08 19:44:00,
2013-05-08 13:49:00,62.2,41.1,29.72,SSW,202,0.0,0.0,46,0.00,,,0.00,LWC V2.10 B1813,2013-05-08 19:49:00,
2013-05-08 13:54:00,61.5,40.4,29.71,SE,135,0.0,0.0,46,0.00,,,0.00,LWC V2.10 B1813,2013-05-08 19:54:00,
2013-05-08 13:59:00,61.5,41.0,29.71,SW,225,0.0,0.0,47,0.00,,,0.00,LWC V2.10 B1813,2013-05-08 19:59:00,
2013-05-08 14:04:00,62.2,41.6,29.71,WSW,247,0.0,0.0,47,0.00,,,0.00,LWC V2.10 B1813,2013-05-08 20:04:00,
2013-05-08 14:09:00,62.6,41.4,29.71,WSW,247,0.0,0.0,46,0.00,,,0.00,LWC V2.10 B1813,2013-05-08 20:09:00,
2013-05-08 14:14:00,63.0,41.3,29.71,SSW,202,0.0,0.0,45,0.00,,,0.00,LWC V2.10 B1813,2013-05-08 20:14:00,
2013-05-08 14:19:00,64.0,42.1,29.71,West,270,0.0,0.0,45,0.00,,,0.00,LWC V2.10 B1813,2013-05-08 20:19:00,
2013-05-08 14:24:00,64.2,41.1,29.71,WSW,247,0.0,0.0,43,0.00,,,0.00,LWC V2.10 B1813,2013-05-08 20:24:00,
2013-05-08 14:29:00,61.5,38.7,29.72,NE,45,6.5,6.5,43,0.00,,,0.00,LWC V2.10 B1813,2013-05-08 20:29:00,
2013-05-08 14:34:00,60.1,39.1,29.71,South,180,3.8,11.9,46,0.00,,,0.00,LWC V2.10 B1813,2013-05-08 20:34:00,
2013-05-08 14:39:00,59.7,39.4,29.71,South,180,0.0,0.0,47,0.00,,,0.00,LWC V2.10 B1813,2013-05-08 20:39:00,
2013-05-08 14:44:00,59.7,38.8,29.71,NNE,22,2.9,2.9,46,0.00,,,0.00,LWC V2.10 B1813,2013-05-08 20:44:00,
2013-05-08 14:49:00,59.9,38.4,29.71,NNE,22,0.0,0.0,45,0.00,,,0.00,LWC V2.10 B1813,2013-05-08 20:49:00,
2013-05-08 14:54:00,60.4,38.9,29.71,NNE,22,0.0,0.0,45,0.00,,,0.00,LWC V2.10 B1813,2013-05-08 20:54:00,
2013-05-08 14:59:00,60.6,38.5,29.71,NE,45,0.0,0.0,44,0.00,,,0.00,LWC V2.10 B1813,2013-05-08 20:59:00,
2013-05-08 15:04:00,61.0,38.8,29.71,NE,45,0.0,0.0,44,0.00,,,0.00,LWC V2.10 B1813,2013-05-08 21:04:00,
2013-05-08 15:09:00,61.0,38.8,29.70,SSE,157,0.0,0.0,44,0.00,,,0.00,LWC V2.10 B1813,2013-05-08 21:09:00,
2013-05-08 15:14:00,61.3,39.1,29.71,SSE,157,0.0,0.0,44,0.00,,,0.00,LWC V2.10 B1813,2013-05-08 21:14:00,
2013-05-08 15:19:00,61.3,39.1,29.70,SSE,157,0.0,0.0,44,0.00,,,0.00,LWC V2.10 B1813,2013-05-08 21:19:00,
2013-05-08 15:20:00,61.3,39.1,29.70,SSE,154,0.0,0.0,44,0.00,,,0.00,LWC V2.10 B1813,2013-05-08 21:20:00,
2013-05-08 15:24:00,62.6,38.5,29.70,SSE,157,0.0,0.0,41,0.00,,,0.00,LWC V2.10 B1813,2013-05-08 21:24:00,
2013-05-08 15:30:00,62.6,39.1,29.70,SSE,157,0.0,0.0,42,0.00,,,0.00,LWC V2.10 B1813,2013-05-08 21:30:00,
2013-05-08 15:40:00,64.2,39.8,29.70,SE,138,0.0,0.0,41,0.00,,,0.00,LWC V2.10 B1813,2013-05-08 21:40:00,
2013-05-08 15:50:00,62.2,38.2,29.71,NNE,29,6.3,7.2,41,0.00,,,0.00,LWC V2.10 B1813,2013-05-08 21:50:00,
2013-05-08 16:00:00,61.2,39.5,29.72,NNE,14,6.0,7.2,45,0.00,,,0.00,LWC V2.10 B1813,2013-05-08 22:00:00,
2013-05-08 16:10:00,60.1,39.7,29.73,NNE,22,6.9,7.2,47,0.00,,,0.00,LWC V2.10 B1813,2013-05-08 22:10:00,
2013-05-08 16:20:00,57.0,41.0,29.73,NE,38,9.2,9.6,55,0.00,,,0.00,LWC V2.10 B1813,2013-05-08 22:20:00,
2013-05-08 16:30:00,54.5,41.4,29.74,ENE,62,4.8,9.6,60,0.00,,,0.00,LWC V2.10 B1813,2013-05-08 22:30:00,
2013-05-08 16:40:00,53.2,41.3,29.74,NNE,28,0.0,10.7,64,0.00,,,0.00,LWC V2.10 B1813,2013-05-08 22:40:00,
2013-05-08 16:50:00,52.9,41.4,29.76,NNE,33,0.0,10.7,65,0.00,,,0.00,LWC V2.10 B1813,2013-05-08 22:50:00,
2013-05-08 17:00:00,52.3,41.1,29.76,NNE,27,1.9,10.7,66,0.00,,,0.00,LWC V2.10 B1813,2013-05-08 23:00:00,
2013-05-08 17:10:00,51.4,41.3,29.76,NE,34,0.2,6.0,68,0.02,,,0.00,LWC V2.10 B1813,2013-05-08 23:10:00,
2013-05-08 17:20:00,50.9,41.1,29.77,NNE,21,0.0,2.7,69,0.04,,,0.00,LWC V2.10 B1813,2013-05-08 23:20:00,
2013-05-08 17:30:00,50.2,41.2,29.77,NW,307,0.0,2.7,71,0.04,,,0.00,LWC V2.10 B1813,2013-05-08 23:30:00,
2013-05-08 17:40:00,49.3,41.3,29.78,West,277,0.0,0.0,73,0.06,,,0.00,LWC V2.10 B1813,2013-05-08 23:40:00,
2013-05-08 17:50:00,48.9,41.3,29.78,West,270,0.0,0.0,75,0.08,,,0.00,LWC V2.10 B1813,2013-05-08 23:50:00,
2013-05-08 18:00:00,48.7,41.4,29.78,WNW,293,0.0,0.0,76,0.08,,,0.00,LWC V2.10 B1813,2013-05-09 00:00:00,
2013-05-08 18:10:00,48.6,41.1,29.78,NNW,347,0.0,0.0,75,0.06,,,0.00,LWC V2.10 B1813,2013-05-09 00:10:00,
2013-05-08 18:20:00,48.7,41.4,29.78,North,0,0.0,0.0,76,0.06,,,0.00,LWC V2.10 B1813,2013-05-09 00:20:00,
2013-05-08 18:30:00,48.2,41.4,29.78,NW,316,0.0,0.0,77,0.06,,,0.00,LWC V2.10 B1813,2013-05-09 00:30:00,
2013-05-08 18:40:00,47.8,41.6,29.78,WSW,258,0.0,0.0,79,0.06,,,0.00,LWC V2.10 B1813,2013-05-09 00:40:00,
2013-05-08 18:50:00,47.7,41.6,29.78,West,269,0.0,0.0,79,0.04,,,0.00,LWC V2.10 B1813,2013-05-09 00:50:00,
2013-05-08 19:00:00,47.5,41.3,29.78,West,269,0.0,0.0,79,0.06,,,0.00,LWC V2.10 B1813,2013-05-09 01:00:00,
2013-05-08 19:10:00,47.3,40.8,29.78,West,266,0.0,0.0,78,0.06,,,0.00,LWC V2.10 B1813,2013-05-09 01:10:00,
2013-05-08 19:20:00,47.1,40.6,29.78,West,272,0.0,0.0,78,0.04,,,0.00,LWC V2.10 B1813,2013-05-09 01:20:00,
2013-05-08 19:30:00,47.1,40.6,29.78,WNW,285,0.0,0.0,78,0.04,,,0.00,LWC V2.10 B1813,2013-05-09 01:30:00,
2013-05-08 19:40:00,47.1,40.6,29.78,NW,306,0.0,0.0,78,0.02,,,0.00,LWC V2.10 B1813,2013-05-09 01:40:00,
2013-05-08 19:50:00,47.1,40.3,29.79,West,270,0.0,0.0,77,0.02,,,0.00,LWC V2.10 B1813,2013-05-09 01:50:00,
2013-05-08 20:00:00,47.3,40.4,29.80,WSW,250,0.0,0.0,77,0.00,,,0.00,LWC V2.10 B1813,2013-05-09 02:00:00,
2013-05-08 20:10:00,47.3,40.4,29.80,WSW,250,0.0,0.0,77,0.00,,,0.00,LWC V2.10 B1813,2013-05-09 02:10:00,
2013-05-08 20:20:00,47.3,40.8,29.80,West,265,0.0,0.0,78,0.00,,,0.00,LWC V2.10 B1813,2013-05-09 02:20:00,
2013-05-08 20:30:00,47.5,41.3,29.80,West,269,0.0,0.0,79,0.00,,,0.00,LWC V2.10 B1813,2013-05-09 02:30:00,
2013-05-08 20:40:00,47.7,41.4,29.81,West,269,0.0,0.0,79,0.00,,,0.00,LWC V2.10 B1813,2013-05-09 02:40:00,
2013-05-08 20:50:00,47.5,41.6,29.81,WSW,257,0.0,0.0,80,0.00,,,0.00,LWC V2.10 B1813,2013-05-09 02:50:00,
2013-05-08 21:00:00,48.0,41.8,29.81,ENE,69,0.0,0.0,79,0.00,,,0.00,LWC V2.10 B1813,2013-05-09 03:00:00,
2013-05-08 21:10:00,48.6,41.9,29.83,NNE,20,0.0,0.0,78,0.02,,,0.00,LWC V2.10 B1813,2013-05-09 03:10:00,
2013-05-08 21:20:00,48.0,41.9,29.83,NE,34,0.0,0.0,79,0.02,,,0.00,LWC V2.10 B1813,2013-05-09 03:20:00,
2013-05-08 21:30:00,47.7,41.8,29.82,NNE,25,0.0,0.0,80,0.08,,,0.00,LWC V2.10 B1813,2013-05-09 03:30:00,
2013-05-08 21:40:00,46.9,41.1,29.82,NNW,343,0.0,0.0,80,0.08,,,0.00,LWC V2.10 B1813,2013-05-09 03:40:00,
2013-05-08 21:50:00,46.8,41.3,29.82,West,274,0.0,0.0,81,0.08,,,0.00,LWC V2.10 B1813,2013-05-09 03:50:00,
2013-05-08 22:00:00,46.8,41.3,29.81,NNW,329,0.0,0.0,81,0.08,,,0.00,LWC V2.10 B1813,2013-05-09 04:00:00,
2013-05-08 22:10:00,46.8,41.6,29.82,NNW,330,0.0,0.0,82,0.06,,,0.00,LWC V2.10 B1813,2013-05-09 04:10:00,
2013-05-08 22:20:00,46.6,41.4,29.81,WSW,250,0.0,0.0,82,0.06,,,0.00,LWC V2.10 B1813,2013-05-09 04:20:00,
2013-05-08 22:30:00,46.6,41.4,29.82,West,269,0.0,0.0,82,0.02,,,0.00,LWC V2.10 B1813,2013-05-09 04:30:00,
2013-05-08 22:40:00,46.6,41.4,29.82,West,260,0.0,0.0,82,0.02,,,0.00,LWC V2.10 B1813,2013-05-09 04:40:00,
2013-05-08 22:50:00,46.6,41.4,29.82,WNW,282,0.0,0.0,82,0.02,,,0.00,LWC V2.10 B1813,2013-05-09 04:50:00,
2013-05-08 23:00:00,46.6,41.4,29.82,West,280,0.0,0.0,82,0.02,,,0.00,LWC V2.10 B1813,2013-05-09 05:00:00,
2013-05-08 23:10:00,47.1,41.5,29.82,North,359,0.0,0.0,80,0.00,,,0.00,LWC V2.10 B1813,2013-05-09 05:10:00,
2013-05-08 23:20:00,47.1,41.3,29.82,WNW,301,0.0,0.0,80,0.00,,,0.00,LWC V2.10 B1813,2013-05-09 05:20:00,
2013-05-08 23:30:00,46.9,41.1,29.82,West,279,0.0,0.0,80,0.00,,,0.00,LWC V2.10 B1813,2013-05-09 05:30:00,
2013-05-08 23:40:00,47.1,41.3,29.81,NW,311,0.0,0.0,80,0.00,,,0.00,LWC V2.10 B1813,2013-05-09 05:40:00,
2013-05-08 23:50:00,47.3,41.1,29.81,North,358,0.0,0.0,79,0.00,,,0.00,LWC V2.10 B1813,2013-05-09 05:50:00,